• Join FlightAware (Why Join?)
  • Login
  • US Flag 
06:34AM EDT


 

Airport Tracker/Info


-or-


 

Live Flight TrackerFlight Track Log ✈ N232CF ✈ 09-Jun-2013 ✈ KJAX - KMTN

Flight Track Log - Related Links

Times and Time Zones

All times are in EDT time to prevent confusion due to time zone crossing. See the N232CF flight status page for this flight to view local times or setup timezone preferences in your user account.

Time Position Orientation Groundspeed Altitude Reporting Facility
EDT Latitude Longitude Course Direction KTS MPH feet Rate Location/Type
04:55PM 30.5069 -81.6703 69° East 198 228 600  Level Jacksonville Center
04:55PM 30.5192 -81.6339 69° East 212 244 2,400 2,700 Climbing Jacksonville Center
04:56PM 30.5561 -81.5586 60° Northeast 288 331 5,000 2,820 Climbing Jacksonville Center
04:57PM 30.6094 -81.4806 52° Northeast 288 331 8,000 3,120 Climbing Jacksonville Center
04:58PM 30.6525 -81.4100 55° Northeast 304 350 11,200 3,060 Climbing Jacksonville Center
04:59PM 30.7078 -81.3269 52° Northeast 314 361 14,200 1,800 Climbing Jacksonville Center
05:00PM 30.7631 -81.2342 55° Northeast 326 375 14,900 780 Climbing Jacksonville Center
05:01PM 30.8461 -81.1892 25° Northeast 326 375 15,800 1,560 Climbing Jacksonville Center
05:02PM 30.9400 -81.1922 358° North 310 357 18,100 2,460 Climbing Jacksonville Center
05:03PM 31.0361 -81.1906 North 324 373 20,800 2,280 Climbing Jacksonville Center
05:04PM 31.1383 -81.1936 359° North 351 404 22,700 1,980 Climbing Jacksonville Center
05:05PM 31.2428 -81.1942 360° North 373 429 24,800 1,440 Climbing Jacksonville Center
05:06PM 31.3533 -81.1919 North 390 449 25,600 1,020 Climbing Jacksonville Center
05:07PM 31.4744 -81.1972 358° North 421 484 26,900 1,320 Climbing Jacksonville Center
05:08PM 31.5978 -81.1950 North 439 505 28,300 1,020 Climbing Jacksonville Center
05:09PM 31.7125 -81.1953 360° North 439 505 29,000 300 Climbing Jacksonville Center
05:10PM 31.8608 -81.1975 359° North 471 542 29,000  Level Jacksonville Center
05:11PM 31.9883 -81.2000 359° North 492 566 29,000  Level Jacksonville Center
05:12PM 32.1297 -81.1606 13° North 497 572 29,000 960 Level Jacksonville Center
05:13PM 32.2617 -81.0550 34° Northeast 491 565 31,000 960 Climbing Jacksonville Center
05:14PM 32.3647 -80.9642 37° Northeast 512 589 31,000 120 Level Jacksonville Center
05:15PM 32.4800 -80.8583 38° Northeast 522 601 31,300 720 Climbing Jacksonville Center
05:16PM 32.6014 -80.7547 36° Northeast 527 606 32,500 840 Climbing Jacksonville Center
05:17PM 32.7186 -80.6506 37° Northeast 527 606 33,000 240 Climbing Jacksonville Center
05:18PM 32.8419 -80.5436 36° Northeast 533 613 33,000  Level Jacksonville Center
05:19PM 32.9672 -80.4364 36° Northeast 544 626 33,000  Level Jacksonville Center
05:20PM 33.1025 -80.3111 38° Northeast 557 641 33,000 840 Level Jacksonville Center
05:21PM 33.2217 -80.2158 34° Northeast 555 639 34,700 1,500 Climbing Jacksonville Center
05:22PM 33.3319 -80.1106 39° Northeast 539 620 36,000 1,260 Climbing Jacksonville Center
05:23PM 33.4486 -80.0075 36° Northeast 527 606 37,300 2,400 Climbing Jacksonville Center
05:24PM 33.5550 -79.9092 38° Northeast 507 583 40,900 1,800 Climbing Jacksonville Center
05:25PM 33.6631 -79.8108 37° Northeast 492 566 41,000  Climbing Jacksonville Center
05:26PM 33.7753 -79.7094 37° Northeast 492 566 41,000 -60 Level Jacksonville Center
05:27PM 33.8917 -79.6053 37° Northeast 505 581 40,900  Descending Jacksonville Center
05:28PM 34.0056 -79.4983 38° Northeast 511 588 41,000  Climbing Jacksonville Center
05:30PM 34.2206 -79.3039 37° Northeast 504 580 41,000  Level Washington Center
05:31PM 34.3422 -79.2214 29° Northeast 533 613 41,000  Level Washington Center
05:32PM 34.4739 -79.1439 26° Northeast 533 613 41,000  Level Washington Center
05:33PM 34.6075 -79.0667 25° Northeast 528 608 41,000  Level Washington Center
05:34PM 34.7433 -78.9864 26° Northeast 528 608 41,000 -180 Level Washington Center
05:35PM 34.8792 -78.9086 25° Northeast 528 608 40,700 -780 Descending Washington Center
05:36PM 35.0106 -78.8328 25° Northeast 528 608 39,500 -1,500 Descending Washington Center
05:37PM 35.1442 -78.7544 26° Northeast 528 608 37,700 -2,040 Descending Washington Center
05:38PM 35.2775 -78.6756 26° Northeast 528 608 35,600 -2,580 Descending Washington Center
05:39PM 35.4322 -78.5822 26° Northeast 543 625 32,600 -2,580 Descending Washington Center
05:40PM 35.5614 -78.5053 26° Northeast 530 610 30,400 -1,800 Descending Washington Center
05:41PM 35.6969 -78.4283 25° Northeast 532 612 29,000 -720 Descending Washington Center
05:42PM 35.8197 -78.3533 26° Northeast 515 593 29,000  Level Washington Center
05:43PM 35.9464 -78.2783 26° Northeast 497 572 29,000  Level Washington Center
05:44PM 36.0756 -78.2031 25° Northeast 497 572 29,000  Level Washington Center
05:45PM 36.2086 -78.1225 26° Northeast 508 585 29,000  Level Washington Center
05:46PM 36.3417 -78.0417 26° Northeast 513 590 29,000  Level Washington Center
05:47PM 36.4706 -77.9631 26° Northeast 513 590 29,000 -120 Level Washington Center
05:48PM 36.5911 -77.8839 28° Northeast 520 598 28,800 -540 Descending Washington Center
05:49PM 36.7283 -77.8025 25° Northeast 530 610 28,000 -420 Descending Washington Center
05:50PM 36.8633 -77.7181 27° Northeast 535 616 28,000 -480 Level Washington Center
05:51PM 36.9981 -77.6386 25° Northeast 535 616 27,100 -960 Descending Washington Center
05:52PM 37.1289 -77.5533 27° Northeast 535 616 26,100 -1,140 Descending Washington Center
05:53PM 37.2553 -77.4758 26° Northeast 523 602 24,900 -1,680 Descending Washington Center
05:54PM 37.3797 -77.3978 26° Northeast 509 586 22,800 -1,440 Descending Washington Center
05:55PM 37.5058 -77.3300 23° Northeast 489 563 22,000 -720 Descending Washington Center
05:56PM 37.6439 -77.2914 12° North 466 536 21,400 -1,620 Descending Washington Center
05:57PM 37.7717 -77.2653 North 466 536 18,800 -2,580 Descending Washington Center
05:58PM 37.8908 -77.2389 10° North 454 522 16,400 -1,980 Descending Washington Center
05:59PM 38.0122 -77.2153 North 440 506 14,900 -720 Descending Washington Center
06:00PM 38.1083 -77.1989 North 414 476 15,000 60 Climbing Washington Center
06:01PM 38.2214 -77.1694 12° North 401 461 15,100  Climbing Washington Center
06:02PM 38.3278 -77.1533 North 401 461 15,000 -180 Descending Washington Center
06:03PM 38.4392 -77.0919 23° Northeast 396 456 14,800 -1,440 Descending Washington Center
06:04PM 38.5156 -76.9794 49° Northeast 399 459 12,100 -2,040 Descending Washington Center
06:05PM 38.5894 -76.8906 43° Northeast 386 444 10,800 -1,140 Descending Washington Center
06:06PM 38.6528 -76.8119 44° Northeast 344 396 9,900 -960 Descending Washington Center
06:07PM 38.7100 -76.7331 47° Northeast 314 361 8,900 -1,320 Descending Washington Center
06:08PM 38.7547 -76.6325 60° Northeast 309 356 7,300 -1,500 Descending Washington Center
06:09PM 38.8333 -76.5500 39° Northeast 283 326 5,900 -1,200 Descending Potomac TRACON
06:10PM 38.8833 -76.5000 38° Northeast 288 331 5,000 -960 Descending Potomac TRACON
06:11PM 38.9667 -76.4500 25° Northeast 284 327 4,100 -1,080 Descending Potomac TRACON
06:12PM 39.0333 -76.4167 21° North 281 323 2,900 -600 Descending Potomac TRACON
06:13PM 39.1167 -76.4167 360° North 277 319 3,000 -300 Climbing Potomac TRACON
06:14PM 39.1833 -76.4167 360° North 277 319 2,300 -660 Descending Potomac TRACON
06:15PM 39.2500 -76.4000 11° North 212 244 1,700 -840 Descending Potomac TRACON
06:16PM 39.3000 -76.3833 14° North 167 192 700 -1,020 Descending Potomac TRACON
06:18PM 39.3167 -76.4000 25° Northeast  Level FlightAware Approximate
06:25PM 39.3257 -76.4138 25° Northeast  Level Estimated
06:26PM 39.3257 -76.4138 25° Northeast  Level Estimated
06:27PM 39.3257 -76.4138 25° Northeast  Level Estimated
06:28PM 39.3257 -76.4138 25° Northeast  Level Estimated
06:29PM 39.3257 -76.4138 25° Northeast  Level Estimated
06:30PM 39.3257 -76.4138 25° Northeast  Level Estimated
06:31PM 39.3257 -76.4138 25° Northeast  Level Estimated
06:32PM 39.3257 -76.4138 25° Northeast  Level Estimated
06:33PM 39.3257 -76.4138 25° Northeast  Level Estimated
06:34PM 39.3257 -76.4138 25° Northeast  Level Estimated